createdAt,value
2017-04-04T04:25:14.944Z,4.92
2017-04-04T04:26:03.495Z,4.94
2017-04-04T04:26:52.479Z,4.94
2017-04-04T04:27:40.893Z,4.83
2017-04-04T04:28:29.733Z,4.92
2017-04-04T04:29:18.457Z,4.92
2017-04-04T04:30:07.752Z,4.86
2017-04-04T04:30:56.561Z,4.86
2017-04-04T04:31:44.970Z,4.76
2017-04-04T04:32:34.085Z,4.68
2017-04-04T04:33:22.901Z,4.7
2017-04-04T04:34:11.513Z,4.67
2017-04-04T04:35:02.160Z,4.67
2017-04-04T04:35:52.537Z,4.67
2017-04-04T04:36:40.958Z,4.68
2017-04-04T04:37:29.899Z,4.63
2017-04-04T04:38:18.691Z,4.66
2017-04-04T04:39:08.090Z,4.66
2017-04-04T04:39:56.523Z,4.64
2017-04-04T04:40:45.526Z,4.64
2017-04-04T04:41:34.133Z,4.66
2017-04-04T04:42:22.720Z,4.78
2017-04-04T04:43:11.573Z,4.68
2017-04-04T04:44:00.990Z,4.66
2017-04-04T04:44:49.732Z,4.84
2017-04-04T04:45:38.167Z,4.84
2017-04-04T04:46:26.753Z,4.78
2017-04-04T04:47:15.889Z,4.84
2017-04-04T04:48:04.353Z,4.86
2017-04-04T04:48:52.859Z,4.84
2017-04-04T04:49:41.614Z,4.76
2017-04-04T04:50:30.035Z,4.71
2017-04-04T04:51:19.681Z,4.76
2017-04-04T04:52:07.690Z,4.83
2017-04-04T04:52:56.991Z,4.78
2017-04-04T04:55:21.450Z,4.83
2017-04-04T04:56:12.633Z,4.76
2017-04-04T04:57:03.314Z,4.82
2017-04-04T04:57:56.966Z,4.78
2017-04-04T05:00:22.513Z,4.61
2017-04-04T05:01:13.946Z,4.67
2017-04-04T05:02:01.559Z,4.68
2017-04-04T05:02:50.427Z,4.68
2017-04-04T05:03:39.137Z,4.7
2017-04-04T05:04:27.402Z,4.71
2017-04-04T05:05:16.511Z,4.7
2017-04-04T05:06:04.589Z,4.78
2017-04-04T05:06:53.444Z,4.82
2017-04-04T05:07:42.458Z,4.82
2017-04-04T05:08:30.732Z,4.82
2017-04-04T05:09:19.539Z,4.79
2017-04-04T05:10:08.063Z,4.95
2017-04-04T05:10:56.574Z,4.92
2017-04-04T05:11:45.565Z,5
2017-04-04T05:12:34.864Z,4.97
2017-04-04T05:13:23.473Z,4.95
2017-04-04T05:14:12.064Z,4.95
2017-04-04T05:15:00.274Z,5.07
2017-04-04T05:15:49.280Z,5.01
2017-04-04T05:16:37.897Z,4.94
2017-04-04T05:17:26.904Z,4.94
2017-04-04T05:18:15.142Z,4.95
2017-04-04T05:19:04.265Z,4.9
2017-04-04T05:19:52.960Z,4.87
2017-04-04T05:20:41.408Z,4.9
2017-04-04T05:21:30.179Z,4.95
2017-04-04T05:22:18.051Z,4.92
2017-04-04T05:23:06.729Z,4.95
2017-04-04T05:23:55.690Z,4.97
2017-04-04T05:24:44.384Z,5.01
2017-04-04T05:25:33.493Z,5.08
2017-04-04T05:26:23.125Z,5.12
2017-04-04T05:27:12.355Z,5.08
2017-04-04T05:28:01.057Z,5.08
2017-04-04T05:28:49.151Z,5.07
2017-04-04T05:29:37.877Z,5.07
2017-04-04T05:30:26.403Z,5.07
2017-04-04T05:31:15.507Z,5.05
2017-04-04T05:32:03.813Z,5.16
2017-04-04T05:32:53.692Z,5.15
2017-04-04T05:33:42.151Z,5.08
2017-04-04T05:34:30.565Z,5.2
2017-04-04T05:35:19.125Z,5.07
2017-04-04T05:36:07.759Z,5.15
2017-04-04T05:36:56.931Z,5.16
2017-04-04T05:37:45.806Z,5.12
2017-04-04T05:38:34.588Z,5.15
2017-04-04T05:39:23.092Z,5.15
2017-04-04T05:40:11.537Z,5.2
2017-04-04T05:41:01.514Z,5.23
2017-04-04T05:41:50.146Z,5.26
2017-04-04T05:42:39.032Z,5.34
2017-04-04T05:43:27.628Z,5.29
2017-04-04T05:44:18.033Z,5.26
2017-04-04T05:45:05.926Z,5.16
2017-04-04T05:45:55.374Z,5.19
2017-04-04T05:48:18.192Z,5.37
2017-04-04T05:49:06.976Z,5.41
2017-04-04T05:49:55.816Z,5.46
2017-04-04T05:50:44.535Z,5.52
2017-04-04T05:51:32.947Z,5.52
2017-04-04T05:52:21.797Z,5.52
2017-04-04T05:53:10.123Z,5.64
2017-04-04T05:53:58.692Z,5.74
2017-04-04T05:54:47.877Z,5.7
2017-04-04T05:55:37.089Z,5.79
2017-04-04T05:56:26.163Z,5.84
2017-04-04T05:57:14.478Z,5.79
2017-04-04T05:58:03.312Z,5.88
2017-04-04T05:58:51.626Z,5.76
2017-04-04T05:59:40.278Z,5.8
2017-04-04T06:00:28.986Z,5.8
2017-04-04T06:01:17.840Z,5.88
2017-04-04T06:02:06.158Z,5.88
2017-04-04T06:02:55.130Z,5.9
2017-04-04T06:03:43.954Z,5.94
2017-04-04T06:04:32.430Z,5.99
2017-04-04T06:05:21.379Z,6.01
2017-04-04T06:06:09.540Z,6.01
2017-04-04T06:06:58.163Z,6.13
2017-04-04T06:07:47.089Z,6.26
2017-04-04T06:08:35.718Z,6.25
2017-04-04T06:09:24.153Z,6.34
2017-04-04T06:10:12.939Z,6.32
2017-04-04T06:11:01.935Z,6.36
2017-04-04T06:11:50.298Z,6.39
2017-04-04T06:12:39.143Z,6.43
2017-04-04T06:13:28.225Z,6.39
2017-04-04T06:14:16.428Z,6.56
2017-04-04T06:15:05.380Z,6.52
2017-04-04T06:15:57.338Z,6.6
2017-04-04T06:16:46.438Z,6.77
2017-04-04T06:17:34.571Z,6.7
2017-04-04T06:18:23.348Z,6.8
2017-04-04T06:19:12.493Z,6.9
2017-04-04T06:20:01.449Z,7.05
2017-04-04T06:20:52.921Z,6.97
2017-04-04T06:21:45.362Z,7.19
2017-04-04T06:22:35.018Z,7.31
2017-04-04T06:23:26.761Z,7.47
2017-04-04T06:24:22.973Z,7.5
2017-04-04T06:25:11.738Z,7.62
2017-04-04T06:26:03.041Z,7.67
2017-04-04T06:26:52.047Z,7.87
2017-04-04T06:27:40.340Z,7.98
2017-04-04T06:28:28.933Z,8.13
2017-04-04T06:29:19.168Z,8.11
2017-04-04T06:30:10.386Z,8.24
2017-04-04T06:31:00.111Z,8.34
2017-04-04T06:31:50.747Z,8.45
2017-04-04T06:32:43.049Z,8.53
2017-04-04T06:33:33.778Z,8.68
2017-04-04T06:34:24.032Z,8.77
2017-04-04T06:35:13.988Z,8.93
2017-04-04T06:36:05.155Z,9.02
2017-04-04T06:36:57.079Z,9.11
2017-04-04T06:37:46.004Z,9.22
2017-04-04T06:38:39.335Z,9.29
2017-04-04T06:39:29.806Z,9.51
2017-04-04T06:40:27.033Z,9.62
2017-04-04T06:42:10.866Z,9.85
2017-04-04T06:44:12.009Z,10.17
2017-04-04T06:45:00.314Z,10.21
2017-04-04T06:45:49.175Z,10.36
2017-04-04T06:46:37.666Z,10.42
2017-04-04T06:47:27.125Z,10.48
2017-04-04T06:48:15.405Z,10.67
2017-04-04T06:49:04.360Z,10.72
2017-04-04T06:49:52.592Z,10.84
2017-04-04T06:50:41.333Z,10.84
2017-04-04T06:51:30.574Z,11.01
2017-04-04T06:52:18.564Z,11.16
2017-04-04T06:53:07.323Z,11.23
2017-04-04T06:53:56.226Z,11.33
2017-04-04T06:54:44.979Z,11.45
2017-04-04T06:55:33.525Z,11.52
2017-04-04T06:56:22.033Z,11.63
2017-04-04T06:57:10.871Z,11.73
2017-04-04T06:57:59.006Z,11.89
2017-04-04T06:58:48.570Z,12.11
2017-04-04T06:59:37.988Z,12.08
2017-04-04T07:00:25.996Z,12.17
2017-04-04T07:01:15.002Z,12.29
2017-04-04T07:02:04.555Z,12.28
2017-04-04T07:02:52.739Z,12.36
2017-04-04T07:03:41.224Z,12.43
2017-04-04T07:04:31.944Z,12.48
2017-04-04T07:05:21.113Z,12.68
2017-04-04T07:06:11.079Z,12.57
2017-04-04T07:07:00.510Z,12.7
2017-04-04T07:07:50.017Z,12.8
2017-04-04T07:08:38.013Z,12.83
2017-04-04T07:09:28.653Z,12.91
2017-04-04T07:10:17.859Z,12.94
2017-04-04T07:11:08.414Z,12.94
2017-04-04T07:11:57.631Z,12.93
2017-04-04T07:12:47.517Z,12.99
2017-04-04T07:13:37.438Z,13.09
2017-04-04T07:14:27.664Z,13.11
2017-04-04T07:15:15.809Z,13.23
2017-04-04T07:16:06.338Z,13.42
2017-04-04T07:16:54.016Z,13.43
2017-04-04T07:17:44.184Z,13.57
2017-04-04T07:18:32.281Z,13.58
2017-04-04T07:19:22.491Z,13.76
2017-04-04T07:20:12.137Z,13.7
2017-04-04T07:21:01.608Z,13.85
2017-04-04T07:21:52.447Z,13.86
2017-04-04T07:22:49.750Z,14.07
2017-04-04T07:23:39.674Z,14.2
2017-04-04T07:25:45.698Z,14.33
2017-04-04T07:26:40.674Z,14.3
2017-04-04T07:28:15.438Z,14.51
2017-04-04T07:30:22.623Z,14.49
2017-04-04T07:32:32.636Z,14.33
2017-04-04T07:33:23.530Z,14.33
2017-04-04T07:34:17.177Z,14.44
2017-04-04T07:35:09.611Z,14.49
2017-04-04T07:35:58.289Z,14.43
2017-04-04T07:36:49.515Z,14.49
2017-04-04T07:37:42.555Z,14.71
2017-04-04T07:38:35.099Z,14.67
2017-04-04T07:39:28.605Z,14.73
2017-04-04T07:42:37.826Z,15.12
2017-04-04T07:44:48.598Z,15.41
2017-04-04T07:45:40.293Z,15.57
2017-04-04T07:46:28.766Z,15.7
2017-04-04T07:47:20.948Z,15.8
2017-04-04T07:48:13.263Z,15.91
2017-04-04T07:49:02.187Z,16.05
2017-04-04T07:49:55.147Z,16.25
2017-04-04T07:50:44.113Z,16.39
2017-04-04T07:51:34.296Z,16.51
2017-04-04T07:52:23.936Z,16.57
2017-04-04T07:53:12.231Z,16.76
2017-04-04T07:55:17.161Z,17.01
2017-04-04T07:56:08.078Z,17.13
2017-04-04T07:57:01.485Z,17.24
2017-04-04T07:57:50.343Z,17.32
2017-04-04T07:58:42.025Z,17.39
2017-04-04T07:59:31.412Z,17.52
2017-04-04T08:00:22.898Z,17.6
2017-04-04T08:01:13.154Z,17.78
2017-04-04T08:02:02.421Z,17.91
2017-04-04T08:02:56.148Z,18.06
2017-04-04T08:03:46.862Z,18.33
2017-04-04T08:04:37.541Z,18.55
2017-04-04T08:05:29.235Z,18.78
2017-04-04T08:06:22.509Z,19.2
2017-04-04T08:07:11.776Z,19.59
2017-04-04T08:08:02.988Z,20.02
2017-04-04T08:10:03.039Z,21.29
2017-04-04T08:10:52.368Z,21.66
2017-04-04T08:11:44.402Z,21.94
2017-04-04T08:12:34.881Z,22.41
2017-04-04T08:13:24.486Z,22.89
2017-04-04T08:14:13.017Z,23.44
2017-04-04T08:15:06.855Z,23.94
2017-04-04T08:16:00.886Z,24.47
2017-04-04T08:16:53.521Z,25.14
2017-04-04T08:17:50.924Z,25.66
2017-04-04T08:18:46.158Z,26.18
2017-04-04T08:20:22.157Z,26.89
2017-04-04T08:21:32.337Z,27.11
2017-04-04T08:22:21.618Z,27.29
2017-04-04T08:23:14.735Z,27.55
2017-04-04T08:25:29.119Z,27.79
2017-04-04T08:26:23.378Z,27.64
2017-04-04T08:27:20.792Z,27.57
2017-04-04T08:28:55.374Z,27.48
2017-04-04T08:29:43.722Z,27.5
2017-04-04T08:30:32.860Z,27.58
2017-04-04T08:31:25.492Z,27.45
2017-04-04T08:33:33.241Z,27.23
2017-04-04T08:35:11.814Z,27.22
2017-04-04T08:36:04.877Z,27.23
2017-04-04T08:38:15.320Z,27.28
2017-04-04T15:49:53.324Z,21.28
2017-04-04T15:50:42.092Z,21.28
2017-04-04T15:51:31.003Z,21.26
2017-04-04T15:52:20.291Z,21.25
2017-04-04T15:53:08.302Z,21.19
2017-04-04T15:53:57.052Z,21.19
2017-04-04T15:54:47.536Z,21.15
2017-04-04T15:55:36.399Z,21.08
2017-04-04T15:56:24.955Z,21.04
2017-04-04T15:57:14.575Z,21.03
2017-04-04T15:58:03.008Z,20.86
2017-04-04T15:58:54.841Z,20.92
2017-04-04T15:59:43.486Z,20.83
2017-04-04T16:00:33.112Z,20.77
2017-04-04T16:01:21.792Z,20.8
2017-04-04T16:02:10.942Z,20.82
2017-04-04T16:02:59.947Z,20.86
2017-04-04T16:03:48.378Z,20.88
2017-04-04T16:04:36.771Z,20.78
2017-04-04T16:05:25.941Z,20.93
2017-04-04T16:06:15.379Z,20.95
2017-04-04T16:07:04.286Z,20.92
2017-04-04T16:07:53.461Z,20.83
2017-04-04T16:08:42.610Z,21.03
2017-04-04T16:09:31.340Z,21.03
2017-04-04T16:10:20.140Z,21.03
2017-04-04T16:11:11.378Z,20.96
2017-04-04T16:11:59.361Z,20.96
2017-04-04T16:12:48.439Z,20.95
2017-04-04T16:13:37.410Z,20.96
2017-04-04T16:14:26.381Z,20.9
2017-04-04T16:15:15.479Z,20.86
2017-04-04T16:16:03.920Z,20.96
2017-04-04T16:16:54.054Z,20.93
2017-04-04T16:17:42.578Z,20.88
2017-04-04T16:18:36.121Z,20.9
2017-04-04T16:19:23.965Z,21.01
2017-04-04T16:20:14.404Z,20.9
2017-04-04T16:21:04.510Z,20.98
2017-04-04T16:21:54.338Z,20.88
2017-04-04T16:22:42.775Z,20.88
2017-04-04T16:23:34.079Z,20.9
2017-04-04T16:24:28.468Z,20.89
2017-04-04T16:25:17.694Z,20.9
2017-04-04T16:26:06.531Z,20.85
2017-04-04T16:26:56.704Z,21
2017-04-04T16:27:45.285Z,20.98
2017-04-04T16:28:34.923Z,20.89
2017-04-04T16:29:27.845Z,20.96
2017-04-04T16:30:19.127Z,21.01
2017-04-04T16:31:08.855Z,21
2017-04-04T16:31:57.833Z,21.01
2017-04-04T16:32:48.959Z,21.07
2017-04-04T16:33:39.315Z,20.98
2017-04-04T16:34:29.507Z,21.07
2017-04-04T17:05:14.562Z,19.48
2017-04-04T17:06:16.362Z,19.52
2017-04-04T17:07:23.692Z,19.38
2017-04-04T17:08:15.777Z,19.37
2017-04-04T17:09:15.689Z,19.3
2017-04-04T17:10:09.243Z,19.23
2017-04-04T17:11:00.323Z,19.17
2017-04-04T17:11:51.522Z,19.09
2017-04-04T17:12:43.250Z,19.09
2017-04-04T17:13:47.377Z,18.98
2017-04-04T17:14:35.136Z,18.96
2017-04-04T17:16:42.641Z,18.89
2017-04-04T17:17:31.531Z,18.85
2017-04-04T17:18:20.251Z,18.83
2017-04-04T17:19:09.148Z,18.81
2017-04-04T17:19:58.265Z,18.76
2017-04-04T17:20:46.754Z,18.78
2017-04-04T17:21:34.937Z,18.78
2017-04-04T17:22:23.794Z,18.73
2017-04-04T17:23:12.459Z,18.79
2017-04-04T17:24:01.385Z,18.74
2017-04-04T17:24:50.059Z,18.73
2017-04-04T17:25:38.837Z,18.71
2017-04-04T17:26:27.574Z,18.58
2017-04-04T17:27:16.550Z,18.61
2017-04-04T17:28:05.220Z,18.6
2017-04-04T17:28:53.593Z,18.52
2017-04-04T17:29:42.444Z,18.52
2017-04-04T17:30:31.460Z,18.49
2017-04-04T17:31:19.718Z,18.46
2017-04-04T17:32:08.566Z,18.39
2017-04-04T17:32:56.769Z,18.37
2017-04-04T17:33:46.107Z,18.43
2017-04-04T17:34:35.621Z,18.37
2017-04-04T17:35:24.572Z,18.37
2017-04-04T17:36:12.705Z,18.28
2017-04-04T17:37:02.336Z,18.33
2017-04-04T17:37:51.264Z,18.36
2017-04-04T17:38:39.697Z,18.26
2017-04-04T17:39:28.832Z,18.28
2017-04-04T17:40:17.531Z,18.21
2017-04-04T17:41:06.658Z,18.11
2017-04-04T17:41:54.813Z,18.02
2017-04-04T17:42:44.261Z,17.95
2017-04-04T17:43:33.017Z,17.87
2017-04-04T17:44:21.402Z,17.84
2017-04-04T17:46:57.900Z,17.35
2017-04-04T17:47:55.320Z,17.07
2017-04-04T17:51:40.110Z,16.5
2017-04-04T17:53:38.824Z,16.25
2017-04-04T17:55:51.422Z,15.96
2017-04-04T20:29:59.244Z,12.4
